Time;durP1;ratioP1;P1;durP2;ratioP2;P2;SDS_P1;SDS_P2;PMS_P1;PMS_P2;Temp;Humidity;BMP_temperature;BMP_pressure;BME280_temperature;BME280_humidity;BME280_pressure;Samples;Min_cycle;Max_cycle;Signal;HPM_P1;HPM_P2
2023/08/27 00:00:15;;;;;;;8.18;4.80;;;20.20;75.60;;;;;;5082934;28;20024;-93
2023/08/27 00:02:41;;;;;;;10.02;5.28;;;20.20;75.60;;;;;;5079368;28;20039;-91
2023/08/27 00:05:10;;;;;;;4.57;3.92;;;20.20;75.80;;;;;;5081113;28;20028;-92
2023/08/27 00:07:36;;;;;;;5.13;3.78;;;20.20;75.80;;;;;;5083468;28;20024;-93
2023/08/27 00:10:03;;;;;;;7.80;4.13;;;20.20;75.60;;;;;;5087867;28;20054;-92
2023/08/27 00:12:29;;;;;;;8.90;4.45;;;20.20;75.60;;;;;;5085893;28;20043;-94
2023/08/27 00:14:55;;;;;;;6.20;4.22;;;20.30;75.50;;;;;;5084282;28;20035;-92
2023/08/27 00:17:21;;;;;;;6.57;4.13;;;20.20;75.30;;;;;;5080701;28;20039;-91
2023/08/27 00:19:47;;;;;;;5.50;4.20;;;20.30;75.30;;;;;;5088493;28;20023;-92
2023/08/27 00:22:12;;;;;;;7.57;4.20;;;20.20;75.30;;;;;;5079778;28;20072;-93
2023/08/27 00:24:38;;;;;;;5.05;4.25;;;20.20;75.50;;;;;;5090387;28;20050;-92
2023/08/27 00:27:05;;;;;;;5.70;3.72;;;20.20;75.30;;;;;;5085364;28;20043;-93
2023/08/27 00:29:32;;;;;;;7.47;4.32;;;20.20;75.30;;;;;;5080263;28;20036;-92
2023/08/27 00:31:58;;;;;;;15.38;5.93;;;20.30;75.30;;;;;;5078153;28;20020;-96
2023/08/27 00:34:34;;;;;;;10.77;5.45;;;20.20;75.20;;;;;;5076791;28;20070;-92
2023/08/27 00:37:03;;;;;;;9.05;5.40;;;20.40;75.80;;;;;;5073063;28;20112;-93
2023/08/27 00:39:29;;;;;;;9.07;5.90;;;20.20;75.30;;;;;;5080202;28;20035;-94
2023/08/27 00:41:55;;;;;;;8.35;5.30;;;20.10;75.20;;;;;;5084980;28;20027;-93
2023/08/27 00:44:21;;;;;;;10.48;5.45;;;20.20;75.50;;;;;;5081751;28;20452;-92
2023/08/27 00:46:48;;;;;;;7.00;5.05;;;20.20;75.50;;;;;;5081690;28;20058;-91
2023/08/27 00:49:17;;;;;;;11.82;5.65;;;20.20;75.80;;;;;;5079829;28;20028;-92
2023/08/27 00:51:46;;;;;;;9.07;5.15;;;20.20;75.80;;;;;;5077025;28;20099;-92
2023/08/27 00:54:12;;;;;;;6.38;4.97;;;20.20;75.80;;;;;;5098761;28;20064;-92
2023/08/27 00:56:48;;;;;;;7.40;5.05;;;20.20;75.60;;;;;;5085418;28;20036;-93
2023/08/27 00:59:14;;;;;;;9.50;5.07;;;20.30;75.90;;;;;;5087250;28;20103;-92
2023/08/27 01:01:40;;;;;;;8.43;4.82;;;20.20;76.10;;;;;;5077273;28;20017;-91
2023/08/27 01:04:06;;;;;;;7.45;4.75;;;20.20;75.40;;;;;;5083993;28;20024;-91
2023/08/27 01:06:33;;;;;;;6.35;4.55;;;20.20;75.10;;;;;;5082100;28;20474;-91
2023/08/27 01:09:21;;;;;;;9.30;4.75;;;20.20;75.30;;;;;;5083520;28;20025;-92
2023/08/27 01:12:08;;;;;;;7.22;4.50;;;20.20;75.80;;;;;;5097462;28;20048;-92
2023/08/27 01:14:36;;;;;;;6.82;4.18;;;20.20;75.80;;;;;;5080970;28;20031;-92
2023/08/27 01:17:03;;;;;;;6.63;4.50;;;20.20;75.50;;;;;;5088736;28;20033;-92
2023/08/27 01:19:30;;;;;;;6.15;4.60;;;20.20;75.50;;;;;;5082534;28;20025;-92
2023/08/27 01:21:55;;;;;;;9.15;5.28;;;20.20;75.50;;;;;;5086401;28;20032;-92
2023/08/27 01:24:21;;;;;;;10.95;5.00;;;20.20;75.40;;;;;;5084095;28;20016;-91
2023/08/27 01:26:54;;;;;;;9.38;5.30;;;20.20;75.50;;;;;;5077013;28;20459;-92
2023/08/27 01:29:41;;;;;;;10.65;5.65;;;20.20;75.60;;;;;;5099572;28;20106;-90
2023/08/27 01:32:37;;;;;;;10.10;5.70;;;20.20;75.60;;;;;;5081615;28;20031;-91
2023/08/27 01:35:06;;;;;;;10.82;5.55;;;20.20;75.70;;;;;;5086863;28;20057;-91
2023/08/27 01:37:32;;;;;;;7.80;5.85;;;20.20;75.40;;;;;;5084655;28;20032;-92
2023/08/27 01:40:00;;;;;;;10.35;5.25;;;20.20;76.30;;;;;;5084795;28;20380;-92
2023/08/27 01:42:27;;;;;;;8.95;6.30;;;20.20;75.70;;;;;;5085088;28;20055;-92
2023/08/27 01:44:55;;;;;;;12.90;6.40;;;20.10;75.50;;;;;;5083539;28;20028;-92
2023/08/27 01:47:20;;;;;;;15.02;6.10;;;20.10;75.50;;;;;;5084266;28;20017;-90
2023/08/27 01:49:46;;;;;;;14.18;6.05;;;20.10;75.50;;;;;;5085803;28;20024;-91
2023/08/27 01:52:12;;;;;;;8.95;5.38;;;20.10;75.60;;;;;;5075774;28;20042;-92
2023/08/27 01:54:37;;;;;;;9.35;6.07;;;20.00;75.70;;;;;;5086618;28;20081;-92
2023/08/27 01:57:04;;;;;;;8.13;5.93;;;20.00;76.00;;;;;;5082808;28;20036;-91
2023/08/27 01:59:30;;;;;;;8.32;6.28;;;20.00;76.20;;;;;;5085941;28;20093;-90
2023/08/27 02:01:55;;;;;;;11.35;5.90;;;20.00;76.40;;;;;;5079751;28;20083;-92
2023/08/27 02:04:22;;;;;;;10.85;6.30;;;20.00;76.20;;;;;;5085394;28;20020;-92
2023/08/27 02:06:48;;;;;;;11.98;6.75;;;20.00;76.30;;;;;;5080816;28;20475;-93
2023/08/27 02:09:15;;;;;;;8.68;6.55;;;20.00;76.40;;;;;;5083606;28;20028;-92
2023/08/27 02:11:42;;;;;;;9.75;6.57;;;20.00;76.40;;;;;;5077630;28;20036;-93
2023/08/27 02:14:08;;;;;;;8.88;6.07;;;20.00;76.80;;;;;;5077972;28;20024;-91
2023/08/27 02:16:35;;;;;;;11.63;6.93;;;20.00;76.80;;;;;;5076351;28;20063;-92
2023/08/27 02:19:01;;;;;;;10.98;6.25;;;20.10;76.60;;;;;;5081190;28;20028;-92
2023/08/27 02:21:26;;;;;;;7.50;6.22;;;20.10;76.70;;;;;;5083006;28;20340;-93
2023/08/27 02:23:52;;;;;;;8.45;5.55;;;20.10;76.70;;;;;;5078640;28;20523;-93
2023/08/27 02:26:18;;;;;;;9.55;6.90;;;20.10;76.80;;;;;;5073876;28;20060;-93
2023/08/27 02:28:46;;;;;;;9.40;5.72;;;20.10;76.70;;;;;;5077504;28;20444;-93
2023/08/27 02:31:12;;;;;;;11.00;6.63;;;20.10;76.70;;;;;;5078835;28;20499;-92
2023/08/27 02:33:41;;;;;;;12.32;6.25;;;20.10;76.90;;;;;;5081165;28;20027;-92
2023/08/27 02:36:07;;;;;;;10.85;6.55;;;20.20;77.00;;;;;;5090234;28;20030;-92
2023/08/27 02:38:33;;;;;;;9.27;6.70;;;20.20;76.80;;;;;;5077162;28;20040;-94
2023/08/27 02:40:59;;;;;;;8.40;6.20;;;20.20;76.70;;;;;;5084535;28;20031;-93
2023/08/27 02:43:24;;;;;;;7.32;6.18;;;20.20;76.60;;;;;;5085381;28;20414;-91
2023/08/27 02:45:51;;;;;;;11.52;7.03;;;20.20;76.60;;;;;;5081891;28;20027;-93
2023/08/27 02:48:16;;;;;;;11.25;6.43;;;20.20;76.60;;;;;;5084437;28;20023;-91
2023/08/27 02:50:42;;;;;;;9.05;6.47;;;20.20;76.60;;;;;;5090010;28;20101;-91
2023/08/27 02:53:08;;;;;;;10.90;6.45;;;20.20;76.60;;;;;;5082025;28;20474;-92
2023/08/27 02:55:34;;;;;;;6.15;5.45;;;20.20;76.50;;;;;;5078527;28;20020;-92
2023/08/27 02:58:00;;;;;;;6.22;5.50;;;20.20;76.50;;;;;;5083752;28;20116;-91
2023/08/27 03:00:26;;;;;;;8.30;5.65;;;20.20;76.40;;;;;;5085460;28;20141;-91
2023/08/27 03:02:52;;;;;;;8.35;5.30;;;20.20;76.40;;;;;;5089569;28;20023;-91
2023/08/27 03:05:18;;;;;;;8.30;5.68;;;20.20;76.40;;;;;;5087413;28;20458;-93
2023/08/27 03:07:45;;;;;;;5.90;4.68;;;20.20;76.40;;;;;;5081544;28;20481;-92
2023/08/27 03:10:11;;;;;;;6.43;5.50;;;20.20;76.60;;;;;;5081666;28;20679;-92
2023/08/27 03:12:36;;;;;;;7.53;4.85;;;20.20;76.60;;;;;;5079811;28;20412;-90
2023/08/27 03:15:02;;;;;;;6.65;5.25;;;20.20;76.80;;;;;;5082334;28;20094;-91
2023/08/27 03:17:28;;;;;;;8.32;4.80;;;20.20;76.80;;;;;;5086454;28;20062;-91
2023/08/27 03:19:54;;;;;;;7.43;5.18;;;20.20;76.80;;;;;;5084071;28;20419;-91
2023/08/27 03:22:20;;;;;;;5.65;4.82;;;20.20;76.80;;;;;;5083890;28;20023;-93
2023/08/27 03:24:48;;;;;;;7.78;5.38;;;20.20;76.60;;;;;;5088182;28;20047;-92
2023/08/27 03:27:14;;;;;;;5.85;5.05;;;20.20;76.70;;;;;;5085934;28;20035;-92
2023/08/27 03:29:40;;;;;;;6.85;5.07;;;20.20;76.70;;;;;;5081133;28;20055;-92
2023/08/27 03:32:06;;;;;;;5.65;4.80;;;20.20;76.70;;;;;;5083550;28;20024;-92
2023/08/27 03:34:32;;;;;;;6.03;4.60;;;20.20;76.80;;;;;;5090257;28;20573;-91
2023/08/27 03:36:58;;;;;;;6.50;5.03;;;20.20;76.80;;;;;;5084137;28;20028;-92
2023/08/27 03:39:24;;;;;;;8.18;4.57;;;20.20;76.70;;;;;;5089360;27;20056;-92
2023/08/27 03:41:50;;;;;;;6.53;4.95;;;20.30;76.70;;;;;;5087855;28;20458;-93
2023/08/27 03:44:16;;;;;;;5.13;4.63;;;20.20;76.90;;;;;;5087995;28;20103;-92
2023/08/27 03:46:42;;;;;;;7.38;4.85;;;20.30;76.90;;;;;;5086239;28;20076;-92
2023/08/27 03:49:08;;;;;;;7.95;4.95;;;20.30;77.20;;;;;;5081836;28;20032;-92
2023/08/27 03:51:34;;;;;;;5.30;4.80;;;20.30;77.20;;;;;;5082429;28;20026;-93
2023/08/27 03:54:02;;;;;;;8.70;5.35;;;20.30;77.10;;;;;;5082778;28;20016;-91
2023/08/27 03:56:28;;;;;;;5.95;4.43;;;20.30;77.40;;;;;;5080729;28;20026;-95
2023/08/27 03:58:54;;;;;;;6.28;5.40;;;20.30;77.00;;;;;;5085679;28;20054;-92
2023/08/27 04:01:19;;;;;;;5.25;4.75;;;20.30;76.80;;;;;;5087873;28;20124;-92
2023/08/27 04:03:45;;;;;;;5.72;5.18;;;20.30;76.90;;;;;;5085188;28;20039;-94
2023/08/27 04:06:11;;;;;;;5.55;4.97;;;20.30;76.90;;;;;;5085184;28;20469;-91
2023/08/27 04:08:37;;;;;;;6.28;4.65;;;20.40;76.90;;;;;;5080284;28;20478;-91
2023/08/27 04:11:04;;;;;;;5.53;4.72;;;20.30;76.90;;;;;;5088833;28;20054;-95
2023/08/27 04:13:30;;;;;;;6.40;4.78;;;20.40;77.00;;;;;;5101473;28;20024;-92
2023/08/27 04:16:10;;;;;;;6.47;4.97;;;20.40;77.20;;;;;;5081094;28;20020;-92
2023/08/27 04:18:36;;;;;;;5.15;4.65;;;20.40;77.40;;;;;;5082630;28;20031;-92
2023/08/27 04:21:03;;;;;;;6.93;5.32;;;20.40;76.80;;;;;;5091101;28;20476;-94
2023/08/27 04:23:29;;;;;;;9.02;4.90;;;20.40;77.20;;;;;;5088395;28;20024;-93
2023/08/27 04:25:55;;;;;;;6.40;5.53;;;20.40;77.00;;;;;;5086478;28;20023;-92
2023/08/27 04:28:21;;;;;;;6.55;5.50;;;20.40;77.00;;;;;;5081020;28;20077;-92
2023/08/27 04:30:51;;;;;;;7.78;5.75;;;20.40;77.20;;;;;;5086053;28;20086;-93
2023/08/27 04:33:17;;;;;;;7.50;6.13;;;20.40;77.20;;;;;;5085666;28;20024;-93
2023/08/27 04:35:47;;;;;;;7.00;6.30;;;20.40;77.00;;;;;;5082485;28;20027;-93
2023/08/27 04:38:13;;;;;;;7.30;5.90;;;20.40;77.10;;;;;;5084288;28;20027;-92
2023/08/27 04:40:39;;;;;;;6.93;5.93;;;20.40;77.00;;;;;;5083904;28;20016;-92
2023/08/27 04:43:05;;;;;;;9.55;6.18;;;20.40;77.00;;;;;;5080005;28;20024;-92
2023/08/27 04:45:31;;;;;;;7.85;5.93;;;20.40;76.90;;;;;;5081703;28;20106;-93
2023/08/27 04:47:57;;;;;;;7.45;5.65;;;20.40;77.00;;;;;;5076320;28;20482;-92
2023/08/27 04:50:23;;;;;;;10.15;6.38;;;20.40;77.00;;;;;;5087660;28;20016;-92
2023/08/27 04:52:48;;;;;;;8.80;6.22;;;20.40;77.00;;;;;;5083817;28;20035;-93
2023/08/27 04:55:14;;;;;;;11.20;5.97;;;20.30;77.30;;;;;;5084622;28;20020;-93
2023/08/27 04:57:40;;;;;;;9.40;5.70;;;20.40;77.40;;;;;;5085014;28;20039;-92
2023/08/27 05:00:19;;;;;;;7.63;6.20;;;20.40;77.30;;;;;;5085294;28;20508;-93
2023/08/27 05:02:49;;;;;;;6.15;5.28;;;20.40;77.80;;;;;;5078877;28;20077;-93
2023/08/27 05:05:15;;;;;;;8.65;6.13;;;20.40;77.40;;;;;;5078657;28;20103;-93
2023/08/27 05:07:42;;;;;;;7.03;5.47;;;20.40;77.40;;;;;;5088929;28;20032;-92
2023/08/27 05:10:08;;;;;;;6.30;5.68;;;20.40;77.20;;;;;;5087062;28;20030;-92
2023/08/27 05:12:34;;;;;;;7.60;5.65;;;20.40;77.50;;;;;;5085725;28;20027;-92
2023/08/27 05:15:00;;;;;;;7.68;5.90;;;20.40;77.20;;;;;;5088758;28;20377;-92
2023/08/27 05:17:26;;;;;;;8.68;5.68;;;20.40;77.40;;;;;;5088303;28;20122;-93
2023/08/27 05:19:52;;;;;;;9.05;6.00;;;20.40;77.40;;;;;;5087884;28;20093;-92
2023/08/27 05:22:18;;;;;;;6.93;5.38;;;20.40;77.60;;;;;;5082264;28;20031;-94
2023/08/27 05:24:44;;;;;;;6.30;5.38;;;20.60;77.90;;;;;;5080400;28;20028;-92
2023/08/27 05:27:10;;;;;;;5.65;4.70;;;20.30;77.40;;;;;;5088257;28;20023;-93
2023/08/27 05:29:36;;;;;;;8.30;5.10;;;20.40;77.70;;;;;;5085457;28;20410;-93
2023/08/27 05:32:02;;;;;;;6.93;5.10;;;20.50;77.80;;;;;;5078954;28;20027;-92
2023/08/27 05:34:28;;;;;;;6.30;5.40;;;20.40;77.80;;;;;;5084034;28;20016;-93
2023/08/27 05:36:54;;;;;;;8.75;5.70;;;20.50;77.90;;;;;;5094852;28;20130;-95
2023/08/27 05:39:20;;;;;;;6.82;5.30;;;20.50;78.00;;;;;;5124048;28;20012;-93
2023/08/27 05:41:49;;;;;;;6.95;5.57;;;20.50;77.90;;;;;;5111107;28;20041;-92
2023/08/27 05:44:15;;;;;;;7.25;5.90;;;20.50;78.10;;;;;;5107844;28;20039;-92
2023/08/27 05:46:41;;;;;;;7.38;5.07;;;20.50;77.90;;;;;;5114073;28;20019;-96
2023/08/27 05:49:06;;;;;;;6.45;4.40;;;20.50;77.90;;;;;;5091251;28;20395;-93
2023/08/27 05:51:32;;;;;;;6.07;4.30;;;20.50;77.90;;;;;;5086185;28;20103;-93
2023/08/27 05:53:58;;;;;;;6.63;3.75;;;20.50;77.80;;;;;;5087889;28;20024;-93
2023/08/27 05:56:27;;;;;;;5.90;3.85;;;20.50;78.00;;;;;;5089621;28;20394;-93
2023/08/27 05:58:53;;;;;;;4.53;4.07;;;20.50;78.00;;;;;;5091102;28;20478;-94
2023/08/27 06:01:19;;;;;;;5.57;3.85;;;20.50;78.10;;;;;;5086673;28;20024;-91
2023/08/27 06:03:45;;;;;;;4.90;3.90;;;20.50;78.00;;;;;;5084952;28;20061;-92
2023/08/27 06:06:11;;;;;;;4.93;3.38;;;20.50;78.00;;;;;;5088938;28;20015;-93
2023/08/27 06:08:37;;;;;;;3.72;3.13;;;20.50;77.90;;;;;;5085088;28;20028;-92
2023/08/27 06:11:04;;;;;;;4.45;3.88;;;20.50;78.10;;;;;;5085082;28;20102;-96
2023/08/27 06:13:30;;;;;;;3.50;3.20;;;20.50;78.20;;;;;;5093984;28;20042;-93
2023/08/27 06:15:56;;;;;;;4.25;3.28;;;20.50;78.40;;;;;;5085744;28;20033;-93
2023/08/27 06:18:22;;;;;;;4.38;3.45;;;20.50;78.40;;;;;;5082641;28;20895;-93
2023/08/27 06:20:48;;;;;;;4.70;3.97;;;20.60;78.60;;;;;;5089052;28;20023;-93
2023/08/27 06:23:14;;;;;;;5.55;4.00;;;20.50;78.50;;;;;;5091196;28;20016;-92
2023/08/27 06:25:40;;;;;;;5.05;3.72;;;20.60;78.30;;;;;;5089003;28;20020;-92
2023/08/27 06:28:07;;;;;;;4.90;3.65;;;20.60;78.30;;;;;;5084969;28;20128;-92
2023/08/27 06:30:34;;;;;;;4.38;3.85;;;20.60;78.40;;;;;;5089042;28;20054;-92
2023/08/27 06:33:00;;;;;;;5.38;3.53;;;20.60;78.30;;;;;;5081589;28;20054;-94
2023/08/27 06:35:26;;;;;;;4.63;4.15;;;20.60;78.10;;;;;;5091454;28;20074;-93
2023/08/27 06:37:52;;;;;;;8.93;4.60;;;20.60;77.60;;;;;;5088811;28;20043;-92
2023/08/27 06:40:18;;;;;;;5.60;4.22;;;20.60;77.60;;;;;;5087688;28;20042;-94
2023/08/27 06:42:44;;;;;;;3.83;3.42;;;20.60;77.60;;;;;;5089218;28;20023;-93
2023/08/27 06:45:10;;;;;;;5.38;3.75;;;20.60;77.80;;;;;;5092035;28;20051;-92
2023/08/27 06:47:36;;;;;;;4.93;3.65;;;20.60;78.30;;;;;;5084352;28;20048;-93
2023/08/27 06:50:06;;;;;;;4.47;3.45;;;20.60;78.40;;;;;;5087541;28;20449;-92
2023/08/27 06:52:32;;;;;;;6.75;4.28;;;20.70;78.40;;;;;;5091254;28;20114;-92
2023/08/27 06:54:59;;;;;;;4.72;3.30;;;20.70;77.90;;;;;;5085633;28;20050;-93
2023/08/27 06:57:25;;;;;;;3.97;3.33;;;20.70;77.70;;;;;;5086082;28;20498;-93
2023/08/27 06:59:50;;;;;;;3.70;3.33;;;20.70;76.90;;;;;;5088468;28;20028;-92
2023/08/27 07:02:19;;;;;;;4.03;3.28;;;20.80;77.00;;;;;;5086736;28;20039;-93
2023/08/27 07:04:45;;;;;;;4.95;3.00;;;20.80;77.00;;;;;;5090151;28;20024;-93
2023/08/27 07:07:12;;;;;;;4.00;3.13;;;20.80;76.70;;;;;;5089112;28;20031;-93
2023/08/27 07:09:38;;;;;;;3.33;2.88;;;20.80;76.50;;;;;;5085034;28;20478;-93
2023/08/27 07:12:05;;;;;;;4.75;3.00;;;20.80;76.30;;;;;;5086464;28;20016;-93
2023/08/27 07:14:31;;;;;;;3.38;2.42;;;20.80;76.30;;;;;;5083144;28;20027;-93
2023/08/27 07:16:57;;;;;;;3.90;2.45;;;20.80;76.10;;;;;;5083110;28;20020;-96
2023/08/27 07:19:23;;;;;;;3.03;2.25;;;20.80;75.90;;;;;;5080826;28;20043;-92
2023/08/27 07:21:49;;;;;;;3.50;2.20;;;20.80;75.80;;;;;;5087256;28;20027;-91
2023/08/27 07:24:15;;;;;;;2.40;1.95;;;20.80;75.40;;;;;;5079155;28;20028;-93
2023/08/27 07:26:41;;;;;;;4.10;1.95;;;20.80;76.10;;;;;;5082789;28;20114;-92
2023/08/27 07:29:06;;;;;;;4.05;1.90;;;20.80;75.30;;;;;;5080981;28;20044;-94
2023/08/27 07:31:32;;;;;;;2.40;1.98;;;20.80;75.40;;;;;;5084978;28;20462;-96
2023/08/27 07:33:59;;;;;;;3.08;2.15;;;20.70;75.20;;;;;;5096418;28;20024;-92
2023/08/27 07:36:25;;;;;;;2.30;2.10;;;20.70;75.50;;;;;;5083540;28;20019;-93
2023/08/27 07:38:52;;;;;;;12.00;2.83;;;20.70;75.50;;;;;;5087402;28;20035;-91
2023/08/27 07:41:17;;;;;;;2.42;2.05;;;20.70;75.40;;;;;;5086386;28;20020;-93
2023/08/27 07:43:43;;;;;;;6.32;1.95;;;20.70;75.60;;;;;;5083117;28;20035;-93
2023/08/27 07:46:09;;;;;;;2.45;1.92;;;20.70;75.70;;;;;;5076795;28;20092;-93
2023/08/27 07:48:35;;;;;;;3.15;1.92;;;20.70;75.70;;;;;;5087491;28;20043;-92
2023/08/27 07:51:02;;;;;;;3.33;2.28;;;20.70;75.90;;;;;;5083718;28;20478;-92
2023/08/27 07:53:28;;;;;;;2.72;2.00;;;20.80;76.40;;;;;;5081950;28;20028;-93
2023/08/27 07:55:55;;;;;;;2.13;1.70;;;20.80;76.20;;;;;;5087177;28;20028;-94
2023/08/27 07:58:21;;;;;;;3.50;1.83;;;20.90;76.10;;;;;;5090845;28;20036;-93
2023/08/27 08:00:47;;;;;;;1.85;1.65;;;21.00;76.10;;;;;;5081700;28;20081;-93
2023/08/27 08:03:13;;;;;;;2.95;1.77;;;21.30;76.30;;;;;;5085331;28;20442;-92
2023/08/27 08:05:39;;;;;;;2.60;1.90;;;21.20;76.40;;;;;;5084922;28;20024;-94
2023/08/27 08:08:05;;;;;;;3.83;1.40;;;21.30;76.00;;;;;;5093008;28;20102;-94
2023/08/27 08:10:31;;;;;;;1.67;1.20;;;21.40;75.70;;;;;;5084114;28;20023;-93
2023/08/27 08:12:56;;;;;;;1.65;1.20;;;21.50;74.90;;;;;;5086803;28;20497;-92
2023/08/27 08:15:22;;;;;;;1.08;0.95;;;21.50;73.90;;;;;;5087211;28;20020;-93
2023/08/27 08:17:48;;;;;;;2.63;1.50;;;21.60;73.60;;;;;;5089114;28;20065;-93
2023/08/27 08:20:14;;;;;;;1.52;1.40;;;21.60;73.40;;;;;;5084480;28;20024;-93
2023/08/27 08:22:40;;;;;;;2.03;1.38;;;21.60;73.20;;;;;;5082048;28;20019;-93
2023/08/27 08:25:06;;;;;;;2.47;1.20;;;21.60;73.30;;;;;;5075231;28;20032;-93
2023/08/27 08:27:33;;;;;;;2.05;1.10;;;21.60;71.20;;;;;;5080051;28;20031;-92
2023/08/27 08:30:00;;;;;;;1.30;1.00;;;21.50;71.50;;;;;;5083604;28;20056;-92
2023/08/27 08:32:26;;;;;;;3.08;1.48;;;21.40;71.50;;;;;;5085414;28;20024;-94
2023/08/27 08:34:54;;;;;;;2.50;1.00;;;21.40;71.50;;;;;;5074147;28;20119;-95
2023/08/27 08:37:20;;;;;;;2.63;1.20;;;21.50;71.80;;;;;;5086602;28;20024;-93
2023/08/27 08:39:45;;;;;;;6.63;1.83;;;21.20;71.60;;;;;;5089269;28;20036;-93
2023/08/27 08:42:31;;;;;;;1.73;1.10;;;21.10;71.30;;;;;;5081698;28;20031;-93
2023/08/27 08:45:19;;;;;;;2.22;1.48;;;21.10;71.30;;;;;;5086906;28;20027;-93
2023/08/27 08:47:47;;;;;;;1.50;1.30;;;21.10;72.10;;;;;;5079314;28;20031;-93
2023/08/27 08:50:13;;;;;;;2.88;1.40;;;21.00;71.80;;;;;;5082852;28;20043;-93
2023/08/27 08:52:40;;;;;;;2.22;1.20;;;20.90;71.70;;;;;;5088581;28;20031;-92
2023/08/27 08:55:10;;;;;;;1.45;1.20;;;20.90;71.90;;;;;;5083258;28;20024;-93
2023/08/27 08:58:10;;;;;;;3.58;1.33;;;20.90;72.20;;;;;;5084801;28;20038;-93
2023/08/27 09:00:37;;;;;;;1.85;1.30;;;20.90;72.20;;;;;;5032972;28;20028;-93
2023/08/27 09:03:03;;;;;;;2.28;1.10;;;20.80;72.20;;;;;;5076640;28;20024;-96
2023/08/27 09:05:32;;;;;;;3.78;1.23;;;20.90;72.40;;;;;;5081900;28;20016;-93
2023/08/27 09:07:59;;;;;;;1.58;1.25;;;20.90;72.60;;;;;;5087316;28;20020;-93
2023/08/27 09:10:26;;;;;;;3.20;1.48;;;20.90;72.60;;;;;;5086993;28;20027;-93
2023/08/27 09:12:56;;;;;;;2.65;1.40;;;20.90;72.70;;;;;;5090692;28;20031;-92
2023/08/27 09:15:22;;;;;;;2.80;1.52;;;20.90;72.50;;;;;;5081360;28;20634;-91
2023/08/27 09:17:49;;;;;;;1.30;1.02;;;21.00;72.40;;;;;;5083945;28;20519;-94
2023/08/27 09:20:15;;;;;;;2.05;1.17;;;21.00;72.20;;;;;;5083800;28;20019;-92
2023/08/27 09:22:41;;;;;;;2.50;1.20;;;21.00;72.50;;;;;;5084540;28;20019;-94
2023/08/27 09:25:09;;;;;;;2.67;1.30;;;21.10;72.80;;;;;;5087780;28;20024;-91
2023/08/27 09:27:35;;;;;;;2.33;1.20;;;21.10;73.00;;;;;;5089929;28;20024;-93
2023/08/27 09:30:03;;;;;;;1.60;1.13;;;21.30;73.10;;;;;;5088344;28;20054;-93
2023/08/27 09:32:29;;;;;;;2.08;1.13;;;21.40;72.60;;;;;;5085859;28;20019;-93
2023/08/27 09:35:00;;;;;;;2.25;1.55;;;21.50;72.40;;;;;;5087675;28;20028;-92
2023/08/27 09:37:37;;;;;;;11.02;1.90;;;21.60;71.90;;;;;;5079507;28;20463;-92
2023/08/27 09:40:06;;;;;;;3.83;1.30;;;21.60;71.50;;;;;;5090582;28;20047;-94
2023/08/27 09:42:33;;;;;;;2.45;1.33;;;21.60;71.30;;;;;;5079612;28;20030;-92
2023/08/27 09:44:59;;;;;;;2.72;1.20;;;21.70;71.90;;;;;;5086476;28;20102;-92
2023/08/27 09:47:43;;;;;;;1.70;1.30;;;21.80;72.20;;;;;;5080430;28;20047;-93
2023/08/27 09:50:16;;;;;;;2.05;1.50;;;21.80;71.60;;;;;;5088344;28;20047;-91
2023/08/27 09:52:45;;;;;;;2.55;1.42;;;21.90;71.50;;;;;;5081064;28;20485;-92
2023/08/27 09:55:14;;;;;;;2.08;1.38;;;22.00;71.20;;;;;;5084235;28;20020;-92
2023/08/27 09:57:50;;;;;;;1.48;1.30;;;21.90;70.40;;;;;;5083376;28;20035;-93
2023/08/27 10:00:22;;;;;;;2.55;1.52;;;22.10;69.90;;;;;;5085744;28;20016;-93
2023/08/27 10:02:53;;;;;;;1.90;1.20;;;22.10;70.10;;;;;;5081347;28;20036;-93
2023/08/27 10:05:27;;;;;;;1.55;1.20;;;22.20;69.10;;;;;;5100867;28;20122;-94
2023/08/27 10:08:04;;;;;;;1.88;1.58;;;22.10;69.00;;;;;;5109958;28;20031;-93
2023/08/27 10:10:36;;;;;;;4.30;1.40;;;22.10;69.60;;;;;;5096273;28;20024;-95
2023/08/27 10:13:03;;;;;;;2.25;1.27;;;22.20;70.30;;;;;;5110421;28;20316;-90
2023/08/27 10:15:29;;;;;;;2.53;1.30;;;22.20;70.00;;;;;;5088973;28;20036;-92
2023/08/27 10:17:56;;;;;;;1.85;1.13;;;22.20;69.50;;;;;;5082211;28;20035;-92
2023/08/27 10:20:23;;;;;;;2.05;1.52;;;22.20;69.40;;;;;;5089978;28;20024;-96
2023/08/27 10:22:49;;;;;;;1.23;1.13;;;22.30;69.30;;;;;;5089686;28;20024;-91
2023/08/27 10:25:17;;;;;;;1.80;1.58;;;22.30;69.40;;;;;;5078739;28;20031;-92
2023/08/27 10:27:46;;;;;;;2.50;1.20;;;22.30;69.30;;;;;;5087579;28;20024;-92
2023/08/27 10:30:14;;;;;;;1.65;1.20;;;22.40;69.00;;;;;;5078981;28;20130;-91
2023/08/27 10:32:39;;;;;;;1.83;1.48;;;22.40;68.30;;;;;;5076377;28;20084;-91
2023/08/27 10:35:06;;;;;;;1.70;1.45;;;22.50;68.50;;;;;;5083645;28;20099;-92
2023/08/27 10:37:34;;;;;;;1.85;1.15;;;22.50;68.80;;;;;;5085893;28;20046;-91
2023/08/27 10:40:07;;;;;;;2.05;1.30;;;22.60;68.60;;;;;;5084214;28;20081;-91
2023/08/27 10:42:33;;;;;;;1.35;1.23;;;22.60;68.20;;;;;;5088446;28;20035;-93
2023/08/27 10:45:15;;;;;;;3.00;1.50;;;22.70;67.30;;;;;;5109252;28;20030;-91
2023/08/27 10:47:43;;;;;;;3.75;1.52;;;22.70;65.80;;;;;;5082219;28;20030;-92
2023/08/27 10:50:10;;;;;;;3.20;1.40;;;22.70;66.30;;;;;;5080916;28;20106;-93
2023/08/27 10:53:03;;;;;;;1.70;1.60;;;22.60;65.80;;;;;;5086979;28;20028;-94
2023/08/27 10:55:35;;;;;;;2.05;1.23;;;22.50;64.80;;;;;;5081233;28;20030;-89
2023/08/27 10:58:18;;;;;;;3.72;1.25;;;22.40;64.90;;;;;;5084282;28;20493;-90
2023/08/27 11:01:13;;;;;;;1.92;1.20;;;22.40;65.40;;;;;;5087920;28;20027;-91
2023/08/27 11:04:04;;;;;;;1.95;1.13;;;22.20;65.40;;;;;;5079790;28;20032;-92
2023/08/27 11:06:41;;;;;;;4.10;1.52;;;22.20;66.30;;;;;;5076427;28;20240;-91
2023/08/27 11:09:20;;;;;;;4.50;1.40;;;22.20;66.90;;;;;;5088616;28;20047;-92
2023/08/27 11:11:53;;;;;;;3.05;1.38;;;22.20;67.30;;;;;;5088748;28;20538;-92
2023/08/27 11:14:21;;;;;;;1.55;1.23;;;22.10;67.90;;;;;;5082767;28;20020;-92
2023/08/27 11:16:49;;;;;;;4.53;1.30;;;22.10;67.80;;;;;;5088745;28;20027;-91
2023/08/27 11:19:27;;;;;;;2.28;1.45;;;22.10;67.90;;;;;;5086481;28;20051;-91
2023/08/27 11:22:04;;;;;;;2.40;1.50;;;22.10;67.60;;;;;;5082706;28;20077;-91
2023/08/27 11:24:30;;;;;;;3.63;1.40;;;22.10;67.60;;;;;;5078582;28;20020;-91
2023/08/27 11:26:58;;;;;;;1.67;1.00;;;22.20;67.80;;;;;;5082754;28;20499;-92
2023/08/27 11:29:24;;;;;;;4.65;1.48;;;22.00;67.70;;;;;;5086689;28;20035;-92
2023/08/27 11:31:50;;;;;;;2.42;1.60;;;22.10;67.50;;;;;;5086911;28;20426;-92
2023/08/27 11:34:16;;;;;;;2.20;1.50;;;22.00;67.30;;;;;;5079909;27;20016;-93
2023/08/27 11:36:54;;;;;;;1.67;1.45;;;22.00;67.30;;;;;;5091697;28;20331;-92
2023/08/27 11:39:20;;;;;;;2.85;1.50;;;22.00;67.40;;;;;;5088978;28;20049;-92
2023/08/27 11:41:46;;;;;;;2.05;1.30;;;22.00;67.40;;;;;;5078539;28;20030;-93
2023/08/27 11:44:12;;;;;;;2.97;1.60;;;21.90;67.70;;;;;;5080075;28;20054;-93
2023/08/27 11:46:41;;;;;;;1.75;1.30;;;21.90;67.90;;;;;;5080068;28;20055;-92
2023/08/27 11:49:08;;;;;;;2.35;1.50;;;21.90;67.80;;;;;;5084520;28;20469;-93
2023/08/27 11:51:34;;;;;;;2.92;1.38;;;22.00;67.60;;;;;;5080983;27;20092;-92
2023/08/27 11:54:05;;;;;;;2.55;1.50;;;22.00;67.20;;;;;;5083777;28;20102;-93
2023/08/27 11:56:34;;;;;;;2.63;1.40;;;22.00;67.10;;;;;;5083327;28;20488;-91
2023/08/27 11:59:00;;;;;;;2.40;1.52;;;21.90;67.00;;;;;;5086351;28;20035;-92
2023/08/27 12:01:26;;;;;;;2.03;1.40;;;22.00;67.10;;;;;;5084305;28;20386;-93
2023/08/27 12:03:52;;;;;;;1.90;1.38;;;22.00;67.60;;;;;;5086493;28;20028;-93
2023/08/27 12:06:24;;;;;;;1.90;1.40;;;21.90;67.90;;;;;;5085028;28;20023;-93
2023/08/27 12:08:55;;;;;;;4.70;1.42;;;22.00;67.50;;;;;;5082746;28;20456;-91
2023/08/27 12:11:27;;;;;;;2.58;1.75;;;22.00;67.60;;;;;;5082988;28;20023;-91
2023/08/27 12:13:57;;;;;;;2.97;1.75;;;22.00;67.90;;;;;;5083425;28;20100;-91
2023/08/27 12:16:34;;;;;;;2.25;1.70;;;22.10;68.10;;;;;;5078123;28;20024;-92
2023/08/27 12:19:08;;;;;;;3.28;1.80;;;22.20;67.50;;;;;;5082046;28;20036;-91
2023/08/27 12:21:45;;;;;;;3.03;1.67;;;22.30;67.60;;;;;;5091217;27;20080;-92
2023/08/27 12:24:25;;;;;;;3.30;1.60;;;22.40;67.40;;;;;;5090445;28;20368;-90
2023/08/27 12:26:51;;;;;;;2.97;1.73;;;22.40;66.00;;;;;;5086163;28;20024;-92
2023/08/27 12:29:17;;;;;;;4.63;1.80;;;22.50;66.80;;;;;;5086125;28;20035;-91
2023/08/27 12:31:45;;;;;;;1.75;1.45;;;22.50;66.40;;;;;;5080906;28;20028;-91
2023/08/27 12:34:11;;;;;;;4.00;1.70;;;22.50;66.60;;;;;;5080907;28;20111;-91
2023/08/27 12:36:37;;;;;;;3.03;1.75;;;22.50;66.50;;;;;;5086742;28;20028;-91
2023/08/27 12:39:03;;;;;;;2.15;1.60;;;22.60;66.50;;;;;;5090467;28;20023;-94
2023/08/27 12:41:29;;;;;;;2.47;1.63;;;22.60;66.20;;;;;;5087270;28;20110;-93
2023/08/27 12:43:55;;;;;;;3.35;1.48;;;22.60;65.90;;;;;;5087165;28;20035;-91
2023/08/27 12:46:23;;;;;;;2.08;1.33;;;22.60;65.80;;;;;;5083312;28;20016;-91
2023/08/27 12:48:49;;;;;;;1.65;1.30;;;22.70;65.60;;;;;;5083597;28;20028;-94